sensor_id;sensor_type;location;lat;lon;timestamp;P1;durP1;ratioP1;P2;durP2;ratioP2
15256;SDS011;7731;50.720;6.912;2023-07-24T00:02:28;4.30;;;3.38;;
15256;SDS011;7731;50.720;6.912;2023-07-24T00:04:58;3.72;;;3.40;;
15256;SDS011;7731;50.720;6.912;2023-07-24T00:07:29;4.53;;;3.00;;
15256;SDS011;7731;50.720;6.912;2023-07-24T00:09:59;3.45;;;3.15;;
15256;SDS011;7731;50.720;6.912;2023-07-24T00:12:32;4.15;;;3.20;;
15256;SDS011;7731;50.720;6.912;2023-07-24T00:15:03;4.60;;;3.67;;
15256;SDS011;7731;50.720;6.912;2023-07-24T00:17:35;3.97;;;3.28;;
15256;SDS011;7731;50.720;6.912;2023-07-24T00:20:06;4.60;;;3.10;;
15256;SDS011;7731;50.720;6.912;2023-07-24T00:22:37;3.58;;;3.10;;
15256;SDS011;7731;50.720;6.912;2023-07-24T00:25:07;3.58;;;3.28;;
15256;SDS011;7731;50.720;6.912;2023-07-24T00:27:43;3.60;;;3.28;;
15256;SDS011;7731;50.720;6.912;2023-07-24T00:30:13;3.67;;;3.38;;
15256;SDS011;7731;50.720;6.912;2023-07-24T00:32:43;5.93;;;3.38;;
15256;SDS011;7731;50.720;6.912;2023-07-24T00:35:17;3.70;;;3.40;;
15256;SDS011;7731;50.720;6.912;2023-07-24T00:37:47;4.35;;;3.65;;
15256;SDS011;7731;50.720;6.912;2023-07-24T00:40:23;3.97;;;3.05;;
15256;SDS011;7731;50.720;6.912;2023-07-24T00:42:56;5.75;;;3.65;;
15256;SDS011;7731;50.720;6.912;2023-07-24T00:45:29;4.13;;;3.72;;
15256;SDS011;7731;50.720;6.912;2023-07-24T00:47:59;4.53;;;3.70;;
15256;SDS011;7731;50.720;6.912;2023-07-24T00:50:33;3.95;;;3.55;;
15256;SDS011;7731;50.720;6.912;2023-07-24T00:53:06;4.03;;;3.63;;
15256;SDS011;7731;50.720;6.912;2023-07-24T00:55:37;4.00;;;3.60;;
15256;SDS011;7731;50.720;6.912;2023-07-24T00:58:15;3.75;;;3.42;;
15256;SDS011;7731;50.720;6.912;2023-07-24T01:00:48;4.28;;;3.88;;
15256;SDS011;7731;50.720;6.912;2023-07-24T01:03:21;4.28;;;3.72;;
15256;SDS011;7731;50.720;6.912;2023-07-24T01:06:02;4.45;;;4.05;;
15256;SDS011;7731;50.720;6.912;2023-07-24T01:08:33;4.63;;;4.22;;
15256;SDS011;7731;50.720;6.912;2023-07-24T01:11:08;4.75;;;3.95;;
15256;SDS011;7731;50.720;6.912;2023-07-24T01:14:02;5.30;;;4.15;;
15256;SDS011;7731;50.720;6.912;2023-07-24T01:16:53;5.45;;;3.95;;
15256;SDS011;7731;50.720;6.912;2023-07-24T01:19:54;4.47;;;3.95;;
15256;SDS011;7731;50.720;6.912;2023-07-24T01:22:32;4.32;;;3.83;;
15256;SDS011;7731;50.720;6.912;2023-07-24T01:25:18;4.15;;;3.53;;
15256;SDS011;7731;50.720;6.912;2023-07-24T01:28:00;4.45;;;4.03;;
15256;SDS011;7731;50.720;6.912;2023-07-24T01:30:36;5.82;;;3.60;;
15256;SDS011;7731;50.720;6.912;2023-07-24T01:33:07;5.93;;;3.90;;
15256;SDS011;7731;50.720;6.912;2023-07-24T01:35:37;4.60;;;3.67;;
15256;SDS011;7731;50.720;6.912;2023-07-24T01:38:09;4.28;;;3.63;;
15256;SDS011;7731;50.720;6.912;2023-07-24T01:40:42;5.07;;;3.92;;
15256;SDS011;7731;50.720;6.912;2023-07-24T01:43:18;4.95;;;3.92;;
15256;SDS011;7731;50.720;6.912;2023-07-24T01:45:49;4.13;;;3.75;;
15256;SDS011;7731;50.720;6.912;2023-07-24T01:48:19;5.50;;;3.85;;
15256;SDS011;7731;50.720;6.912;2023-07-24T01:50:49;4.95;;;3.90;;
15256;SDS011;7731;50.720;6.912;2023-07-24T01:53:20;4.22;;;3.83;;
15256;SDS011;7731;50.720;6.912;2023-07-24T01:55:57;4.30;;;3.58;;
15256;SDS011;7731;50.720;6.912;2023-07-24T01:58:33;5.38;;;3.83;;
15256;SDS011;7731;50.720;6.912;2023-07-24T02:01:06;6.10;;;4.00;;
15256;SDS011;7731;50.720;6.912;2023-07-24T02:03:39;3.95;;;3.58;;
15256;SDS011;7731;50.720;6.912;2023-07-24T02:06:12;3.97;;;3.67;;
15256;SDS011;7731;50.720;6.912;2023-07-24T02:08:42;5.40;;;4.00;;
15256;SDS011;7731;50.720;6.912;2023-07-24T02:11:15;5.10;;;3.90;;
15256;SDS011;7731;50.720;6.912;2023-07-24T02:13:53;4.38;;;3.63;;
15256;SDS011;7731;50.720;6.912;2023-07-24T02:16:24;4.20;;;3.67;;
15256;SDS011;7731;50.720;6.912;2023-07-24T02:18:54;4.30;;;3.50;;
15256;SDS011;7731;50.720;6.912;2023-07-24T02:21:25;5.82;;;3.50;;
15256;SDS011;7731;50.720;6.912;2023-07-24T02:24:03;3.80;;;3.50;;
15256;SDS011;7731;50.720;6.912;2023-07-24T02:26:34;4.75;;;3.92;;
15256;SDS011;7731;50.720;6.912;2023-07-24T02:29:09;3.88;;;3.47;;
15256;SDS011;7731;50.720;6.912;2023-07-24T02:31:40;4.03;;;3.63;;
15256;SDS011;7731;50.720;6.912;2023-07-24T02:34:17;5.30;;;4.10;;
15256;SDS011;7731;50.720;6.912;2023-07-24T02:36:50;5.57;;;4.05;;
15256;SDS011;7731;50.720;6.912;2023-07-24T02:39:21;6.63;;;4.00;;
15256;SDS011;7731;50.720;6.912;2023-07-24T02:41:51;4.03;;;3.65;;
15256;SDS011;7731;50.720;6.912;2023-07-24T02:44:24;4.65;;;4.00;;
15256;SDS011;7731;50.720;6.912;2023-07-24T02:47:00;5.30;;;4.15;;
15256;SDS011;7731;50.720;6.912;2023-07-24T02:49:30;4.35;;;3.35;;
15256;SDS011;7731;50.720;6.912;2023-07-24T02:52:02;4.30;;;3.67;;
15256;SDS011;7731;50.720;6.912;2023-07-24T02:54:33;6.93;;;4.03;;
15256;SDS011;7731;50.720;6.912;2023-07-24T02:57:06;5.57;;;4.38;;
15256;SDS011;7731;50.720;6.912;2023-07-24T02:59:47;5.97;;;3.60;;
15256;SDS011;7731;50.720;6.912;2023-07-24T03:02:17;4.65;;;4.03;;
15256;SDS011;7731;50.720;6.912;2023-07-24T03:04:50;4.60;;;4.20;;
15256;SDS011;7731;50.720;6.912;2023-07-24T03:07:20;4.90;;;4.18;;
15256;SDS011;7731;50.720;6.912;2023-07-24T03:09:50;7.10;;;4.05;;
15256;SDS011;7731;50.720;6.912;2023-07-24T03:12:24;5.63;;;3.75;;
15256;SDS011;7731;50.720;6.912;2023-07-24T03:14:57;4.93;;;3.90;;
15256;SDS011;7731;50.720;6.912;2023-07-24T03:17:35;6.70;;;4.50;;
15256;SDS011;7731;50.720;6.912;2023-07-24T03:20:15;5.07;;;4.10;;
15256;SDS011;7731;50.720;6.912;2023-07-24T03:22:47;4.35;;;3.97;;
15256;SDS011;7731;50.720;6.912;2023-07-24T03:25:20;4.45;;;4.05;;
15256;SDS011;7731;50.720;6.912;2023-07-24T03:27:50;4.80;;;4.30;;
15256;SDS011;7731;50.720;6.912;2023-07-24T03:30:23;5.25;;;4.50;;
15256;SDS011;7731;50.720;6.912;2023-07-24T03:32:54;4.45;;;4.05;;
15256;SDS011;7731;50.720;6.912;2023-07-24T03:35:28;8.10;;;4.18;;
15256;SDS011;7731;50.720;6.912;2023-07-24T03:38:00;4.93;;;4.45;;
15256;SDS011;7731;50.720;6.912;2023-07-24T03:41:09;6.82;;;4.65;;
15256;SDS011;7731;50.720;6.912;2023-07-24T03:43:24;4.60;;;4.15;;
15256;SDS011;7731;50.720;6.912;2023-07-24T03:45:57;4.78;;;4.32;;
15256;SDS011;7731;50.720;6.912;2023-07-24T03:48:42;4.75;;;4.35;;
15256;SDS011;7731;50.720;6.912;2023-07-24T03:51:16;5.80;;;4.40;;
15256;SDS011;7731;50.720;6.912;2023-07-24T03:53:54;5.57;;;4.80;;
15256;SDS011;7731;50.720;6.912;2023-07-24T03:56:24;4.47;;;4.07;;
15256;SDS011;7731;50.720;6.912;2023-07-24T03:58:58;4.60;;;4.00;;
15256;SDS011;7731;50.720;6.912;2023-07-24T04:01:31;4.68;;;4.28;;
15256;SDS011;7731;50.720;6.912;2023-07-24T04:04:01;5.78;;;4.38;;
15256;SDS011;7731;50.720;6.912;2023-07-24T04:06:31;7.53;;;4.78;;
15256;SDS011;7731;50.720;6.912;2023-07-24T04:09:02;6.47;;;4.43;;
15256;SDS011;7731;50.720;6.912;2023-07-24T04:11:32;5.22;;;4.28;;
15256;SDS011;7731;50.720;6.912;2023-07-24T04:14:04;6.22;;;4.50;;
15256;SDS011;7731;50.720;6.912;2023-07-24T04:16:47;4.25;;;3.85;;
15256;SDS011;7731;50.720;6.912;2023-07-24T04:19:17;4.97;;;4.47;;
15256;SDS011;7731;50.720;6.912;2023-07-24T04:21:50;4.97;;;4.47;;
15256;SDS011;7731;50.720;6.912;2023-07-24T04:24:22;4.70;;;4.28;;
15256;SDS011;7731;50.720;6.912;2023-07-24T04:26:56;5.63;;;4.68;;
15256;SDS011;7731;50.720;6.912;2023-07-24T04:29:26;4.80;;;4.30;;
15256;SDS011;7731;50.720;6.912;2023-07-24T04:31:59;7.00;;;4.53;;
15256;SDS011;7731;50.720;6.912;2023-07-24T04:34:31;4.78;;;4.32;;
15256;SDS011;7731;50.720;6.912;2023-07-24T04:37:02;6.43;;;4.22;;
15256;SDS011;7731;50.720;6.912;2023-07-24T04:39:33;4.90;;;4.18;;
15256;SDS011;7731;50.720;6.912;2023-07-24T04:42:04;4.75;;;4.35;;
15256;SDS011;7731;50.720;6.912;2023-07-24T04:44:34;4.72;;;4.20;;
15256;SDS011;7731;50.720;6.912;2023-07-24T04:47:07;5.50;;;4.45;;
15256;SDS011;7731;50.720;6.912;2023-07-24T04:49:37;6.07;;;4.60;;
15256;SDS011;7731;50.720;6.912;2023-07-24T04:52:08;5.40;;;4.90;;
15256;SDS011;7731;50.720;6.912;2023-07-24T04:54:38;5.43;;;4.68;;
15256;SDS011;7731;50.720;6.912;2023-07-24T04:57:08;5.15;;;4.65;;
15256;SDS011;7731;50.720;6.912;2023-07-24T04:59:39;4.65;;;4.20;;
15256;SDS011;7731;50.720;6.912;2023-07-24T05:02:12;5.80;;;4.60;;
15256;SDS011;7731;50.720;6.912;2023-07-24T05:04:45;5.03;;;4.53;;
15256;SDS011;7731;50.720;6.912;2023-07-24T05:07:16;5.30;;;4.43;;
15256;SDS011;7731;50.720;6.912;2023-07-24T05:09:47;5.78;;;4.25;;
15256;SDS011;7731;50.720;6.912;2023-07-24T05:12:17;5.50;;;4.20;;
15256;SDS011;7731;50.720;6.912;2023-07-24T05:14:47;5.63;;;4.15;;
15256;SDS011;7731;50.720;6.912;2023-07-24T05:17:20;4.45;;;4.05;;
15256;SDS011;7731;50.720;6.912;2023-07-24T05:19:51;4.90;;;4.50;;
15256;SDS011;7731;50.720;6.912;2023-07-24T05:22:21;6.70;;;4.53;;
15256;SDS011;7731;50.720;6.912;2023-07-24T05:24:51;6.20;;;3.90;;
15256;SDS011;7731;50.720;6.912;2023-07-24T05:27:22;4.72;;;3.90;;
15256;SDS011;7731;50.720;6.912;2023-07-24T05:29:52;6.45;;;4.18;;
15256;SDS011;7731;50.720;6.912;2023-07-24T05:32:25;5.25;;;3.70;;
15256;SDS011;7731;50.720;6.912;2023-07-24T05:34:56;7.00;;;4.22;;
15256;SDS011;7731;50.720;6.912;2023-07-24T05:37:26;5.35;;;4.38;;
15256;SDS011;7731;50.720;6.912;2023-07-24T05:39:58;5.43;;;3.60;;
15256;SDS011;7731;50.720;6.912;2023-07-24T05:42:29;5.55;;;3.53;;
15256;SDS011;7731;50.720;6.912;2023-07-24T05:45:06;4.68;;;4.07;;
15256;SDS011;7731;50.720;6.912;2023-07-24T05:47:42;4.50;;;4.00;;
15256;SDS011;7731;50.720;6.912;2023-07-24T05:50:15;5.63;;;4.40;;
15256;SDS011;7731;50.720;6.912;2023-07-24T05:52:45;5.75;;;4.45;;
15256;SDS011;7731;50.720;6.912;2023-07-24T05:55:18;4.55;;;3.83;;
15256;SDS011;7731;50.720;6.912;2023-07-24T05:57:49;5.32;;;4.35;;
15256;SDS011;7731;50.720;6.912;2023-07-24T06:00:19;5.75;;;3.95;;
15256;SDS011;7731;50.720;6.912;2023-07-24T06:02:54;4.60;;;4.00;;
15256;SDS011;7731;50.720;6.912;2023-07-24T06:05:26;4.60;;;3.65;;
15256;SDS011;7731;50.720;6.912;2023-07-24T06:07:56;5.82;;;4.30;;
15256;SDS011;7731;50.720;6.912;2023-07-24T06:10:35;6.63;;;4.50;;
15256;SDS011;7731;50.720;6.912;2023-07-24T06:13:08;5.68;;;3.95;;
15256;SDS011;7731;50.720;6.912;2023-07-24T06:15:38;6.53;;;4.43;;
15256;SDS011;7731;50.720;6.912;2023-07-24T06:18:11;4.88;;;3.92;;
15256;SDS011;7731;50.720;6.912;2023-07-24T06:20:42;5.20;;;4.03;;
15256;SDS011;7731;50.720;6.912;2023-07-24T06:23:12;4.72;;;4.10;;
15256;SDS011;7731;50.720;6.912;2023-07-24T06:25:42;5.15;;;4.20;;
15256;SDS011;7731;50.720;6.912;2023-07-24T06:28:19;5.28;;;4.38;;
15256;SDS011;7731;50.720;6.912;2023-07-24T06:30:51;4.45;;;4.05;;
15256;SDS011;7731;50.720;6.912;2023-07-24T06:33:27;4.78;;;4.15;;
15256;SDS011;7731;50.720;6.912;2023-07-24T06:36:00;5.93;;;4.30;;
15256;SDS011;7731;50.720;6.912;2023-07-24T06:38:30;5.47;;;4.20;;
15256;SDS011;7731;50.720;6.912;2023-07-24T06:41:01;4.38;;;3.97;;
15256;SDS011;7731;50.720;6.912;2023-07-24T06:43:32;5.03;;;4.07;;
15256;SDS011;7731;50.720;6.912;2023-07-24T06:46:02;4.63;;;4.13;;
15256;SDS011;7731;50.720;6.912;2023-07-24T06:48:35;4.72;;;3.83;;
15256;SDS011;7731;50.720;6.912;2023-07-24T06:51:05;4.63;;;4.03;;
15256;SDS011;7731;50.720;6.912;2023-07-24T06:53:36;6.00;;;3.85;;
15256;SDS011;7731;50.720;6.912;2023-07-24T06:56:06;4.40;;;4.00;;
15256;SDS011;7731;50.720;6.912;2023-07-24T06:58:45;6.57;;;4.00;;
15256;SDS011;7731;50.720;6.912;2023-07-24T07:01:21;8.13;;;4.40;;
15256;SDS011;7731;50.720;6.912;2023-07-24T07:03:54;4.32;;;3.65;;
15256;SDS011;7731;50.720;6.912;2023-07-24T07:06:25;4.28;;;3.53;;
15256;SDS011;7731;50.720;6.912;2023-07-24T07:08:55;4.00;;;3.70;;
15256;SDS011;7731;50.720;6.912;2023-07-24T07:11:25;4.30;;;3.92;;
15256;SDS011;7731;50.720;6.912;2023-07-24T07:13:58;5.65;;;3.58;;
15256;SDS011;7731;50.720;6.912;2023-07-24T07:16:28;5.00;;;3.80;;
15256;SDS011;7731;50.720;6.912;2023-07-24T07:19:01;5.25;;;4.10;;
15256;SDS011;7731;50.720;6.912;2023-07-24T07:21:32;4.30;;;3.53;;
15256;SDS011;7731;50.720;6.912;2023-07-24T07:24:02;4.25;;;3.60;;
15256;SDS011;7731;50.720;6.912;2023-07-24T07:26:33;5.15;;;4.10;;
15256;SDS011;7731;50.720;6.912;2023-07-24T07:29:06;5.80;;;4.22;;
15256;SDS011;7731;50.720;6.912;2023-07-24T07:31:36;5.22;;;4.18;;
15256;SDS011;7731;50.720;6.912;2023-07-24T07:34:09;4.40;;;3.90;;
15256;SDS011;7731;50.720;6.912;2023-07-24T07:36:39;4.53;;;4.07;;
15256;SDS011;7731;50.720;6.912;2023-07-24T07:39:10;4.30;;;3.90;;
15256;SDS011;7731;50.720;6.912;2023-07-24T07:41:40;4.38;;;3.70;;
15256;SDS011;7731;50.720;6.912;2023-07-24T07:44:10;4.80;;;4.40;;
15256;SDS011;7731;50.720;6.912;2023-07-24T07:46:49;4.70;;;4.30;;
15256;SDS011;7731;50.720;6.912;2023-07-24T07:49:29;4.43;;;4.03;;
15256;SDS011;7731;50.720;6.912;2023-07-24T07:51:59;5.13;;;4.43;;
15256;SDS011;7731;50.720;6.912;2023-07-24T07:54:33;5.95;;;4.03;;
15256;SDS011;7731;50.720;6.912;2023-07-24T07:57:10;4.97;;;4.18;;
15256;SDS011;7731;50.720;6.912;2023-07-24T07:59:40;4.30;;;3.90;;
15256;SDS011;7731;50.720;6.912;2023-07-24T08:02:11;4.18;;;3.78;;
15256;SDS011;7731;50.720;6.912;2023-07-24T08:04:51;4.28;;;3.90;;
15256;SDS011;7731;50.720;6.912;2023-07-24T08:07:21;4.63;;;3.80;;
15256;SDS011;7731;50.720;6.912;2023-07-24T08:09:52;5.03;;;3.83;;
15256;SDS011;7731;50.720;6.912;2023-07-24T08:12:27;4.05;;;3.60;;
15256;SDS011;7731;50.720;6.912;2023-07-24T08:15:00;4.03;;;3.47;;
15256;SDS011;7731;50.720;6.912;2023-07-24T08:17:31;4.43;;;3.97;;
15256;SDS011;7731;50.720;6.912;2023-07-24T08:20:04;4.20;;;3.67;;
15256;SDS011;7731;50.720;6.912;2023-07-24T08:22:36;5.88;;;2.90;;
15256;SDS011;7731;50.720;6.912;2023-07-24T08:25:09;4.78;;;3.25;;
15256;SDS011;7731;50.720;6.912;2023-07-24T08:27:40;3.80;;;3.22;;
15256;SDS011;7731;50.720;6.912;2023-07-24T08:30:30;3.90;;;3.50;;
15256;SDS011;7731;50.720;6.912;2023-07-24T08:33:01;3.72;;;3.33;;
15256;SDS011;7731;50.720;6.912;2023-07-24T08:35:34;5.65;;;3.75;;
15256;SDS011;7731;50.720;6.912;2023-07-24T08:38:04;3.50;;;3.20;;
15256;SDS011;7731;50.720;6.912;2023-07-24T08:40:37;4.82;;;3.42;;
15256;SDS011;7731;50.720;6.912;2023-07-24T08:43:07;3.95;;;3.53;;
15256;SDS011;7731;50.720;6.912;2023-07-24T08:45:40;5.57;;;4.10;;
15256;SDS011;7731;50.720;6.912;2023-07-24T08:48:10;3.47;;;3.13;;
15256;SDS011;7731;50.720;6.912;2023-07-24T08:50:43;4.35;;;3.35;;
15256;SDS011;7731;50.720;6.912;2023-07-24T08:53:16;3.17;;;2.85;;
15256;SDS011;7731;50.720;6.912;2023-07-24T08:55:53;3.30;;;3.00;;
15256;SDS011;7731;50.720;6.912;2023-07-24T08:58:25;4.75;;;3.03;;
15256;SDS011;7731;50.720;6.912;2023-07-24T09:00:56;3.25;;;2.95;;
15256;SDS011;7731;50.720;6.912;2023-07-24T09:03:29;3.47;;;2.90;;
15256;SDS011;7731;50.720;6.912;2023-07-24T09:06:04;3.55;;;2.90;;
15256;SDS011;7731;50.720;6.912;2023-07-24T09:08:35;3.20;;;2.90;;
15256;SDS011;7731;50.720;6.912;2023-07-24T09:11:08;3.08;;;2.70;;
15256;SDS011;7731;50.720;6.912;2023-07-24T09:13:40;3.55;;;2.90;;
15256;SDS011;7731;50.720;6.912;2023-07-24T09:16:20;2.83;;;2.50;;
15256;SDS011;7731;50.720;6.912;2023-07-24T09:19:01;4.25;;;2.80;;
15256;SDS011;7731;50.720;6.912;2023-07-24T09:21:36;3.38;;;2.50;;
15256;SDS011;7731;50.720;6.912;2023-07-24T09:24:09;3.45;;;2.80;;
15256;SDS011;7731;50.720;6.912;2023-07-24T09:26:48;4.60;;;2.80;;
15256;SDS011;7731;50.720;6.912;2023-07-24T09:29:29;3.38;;;2.92;;
15256;SDS011;7731;50.720;6.912;2023-07-24T09:32:01;4.10;;;2.63;;
15256;SDS011;7731;50.720;6.912;2023-07-24T09:34:41;3.55;;;2.70;;
15256;SDS011;7731;50.720;6.912;2023-07-24T09:37:24;4.10;;;2.97;;
15256;SDS011;7731;50.720;6.912;2023-07-24T09:39:55;3.17;;;2.72;;
15256;SDS011;7731;50.720;6.912;2023-07-24T09:42:29;3.55;;;2.80;;
15256;SDS011;7731;50.720;6.912;2023-07-24T09:45:13;5.20;;;2.67;;
15256;SDS011;7731;50.720;6.912;2023-07-24T09:47:43;2.80;;;2.50;;
15256;SDS011;7731;50.720;6.912;2023-07-24T09:50:25;3.13;;;2.80;;
15256;SDS011;7731;50.720;6.912;2023-07-24T09:53:07;2.63;;;2.40;;
15256;SDS011;7731;50.720;6.912;2023-07-24T09:55:51;3.30;;;2.60;;
15256;SDS011;7731;50.720;6.912;2023-07-24T09:58:28;2.78;;;2.30;;
15256;SDS011;7731;50.720;6.912;2023-07-24T10:01:02;3.08;;;2.35;;
15256;SDS011;7731;50.720;6.912;2023-07-24T10:03:34;2.78;;;2.50;;
15256;SDS011;7731;50.720;6.912;2023-07-24T10:06:09;2.45;;;2.25;;
15256;SDS011;7731;50.720;6.912;2023-07-24T10:08:44;2.63;;;2.42;;
15256;SDS011;7731;50.720;6.912;2023-07-24T10:11:15;3.03;;;2.40;;
15256;SDS011;7731;50.720;6.912;2023-07-24T10:13:48;2.80;;;2.50;;
15256;SDS011;7731;50.720;6.912;2023-07-24T10:16:20;3.15;;;2.85;;
15256;SDS011;7731;50.720;6.912;2023-07-24T10:18:50;4.45;;;2.40;;
15256;SDS011;7731;50.720;6.912;2023-07-24T10:21:26;2.70;;;2.50;;
15256;SDS011;7731;50.720;6.912;2023-07-24T10:24:00;3.10;;;2.90;;
15256;SDS011;7731;50.720;6.912;2023-07-24T10:26:30;2.92;;;2.72;;
15256;SDS011;7731;50.720;6.912;2023-07-24T10:29:05;4.50;;;2.95;;
15256;SDS011;7731;50.720;6.912;2023-07-24T10:31:38;3.47;;;3.15;;
15256;SDS011;7731;50.720;6.912;2023-07-24T10:34:09;4.32;;;3.17;;
15256;SDS011;7731;50.720;6.912;2023-07-24T10:36:39;3.60;;;3.30;;
15256;SDS011;7731;50.720;6.912;2023-07-24T10:39:16;4.20;;;3.13;;
15256;SDS011;7731;50.720;6.912;2023-07-24T10:41:52;3.28;;;2.97;;
15256;SDS011;7731;50.720;6.912;2023-07-24T10:44:29;4.00;;;3.60;;
15256;SDS011;7731;50.720;6.912;2023-07-24T10:47:00;3.28;;;2.97;;
15256;SDS011;7731;50.720;6.912;2023-07-24T10:49:31;6.53;;;2.85;;
15256;SDS011;7731;50.720;6.912;2023-07-24T10:52:03;6.53;;;2.60;;
15256;SDS011;7731;50.720;6.912;2023-07-24T10:54:41;3.45;;;2.88;;
15256;SDS011;7731;50.720;6.912;2023-07-24T10:57:11;3.50;;;3.20;;
15256;SDS011;7731;50.720;6.912;2023-07-24T10:59:41;3.33;;;3.00;;
15256;SDS011;7731;50.720;6.912;2023-07-24T11:02:11;3.92;;;3.30;;
15256;SDS011;7731;50.720;6.912;2023-07-24T11:04:44;3.17;;;2.88;;
15256;SDS011;7731;50.720;6.912;2023-07-24T11:07:15;4.22;;;3.03;;
15256;SDS011;7731;50.720;6.912;2023-07-24T11:09:49;3.15;;;2.78;;
15256;SDS011;7731;50.720;6.912;2023-07-24T11:12:20;3.05;;;2.58;;
15256;SDS011;7731;50.720;6.912;2023-07-24T11:14:57;3.38;;;3.08;;
15256;SDS011;7731;50.720;6.912;2023-07-24T11:17:34;3.50;;;2.95;;
15256;SDS011;7731;50.720;6.912;2023-07-24T11:20:15;3.13;;;2.80;;
15256;SDS011;7731;50.720;6.912;2023-07-24T11:22:45;3.90;;;2.60;;
15256;SDS011;7731;50.720;6.912;2023-07-24T11:25:18;5.45;;;2.90;;
15256;SDS011;7731;50.720;6.912;2023-07-24T11:27:49;4.53;;;3.20;;
15256;SDS011;7731;50.720;6.912;2023-07-24T11:30:21;7.72;;;2.90;;
15256;SDS011;7731;50.720;6.912;2023-07-24T11:32:52;3.28;;;2.95;;
15256;SDS011;7731;50.720;6.912;2023-07-24T11:35:22;5.65;;;3.13;;
15256;SDS011;7731;50.720;6.912;2023-07-24T11:37:59;3.83;;;2.80;;
15256;SDS011;7731;50.720;6.912;2023-07-24T11:40:34;3.63;;;2.78;;
15256;SDS011;7731;50.720;6.912;2023-07-24T11:43:16;4.05;;;2.75;;
15256;SDS011;7731;50.720;6.912;2023-07-24T11:45:49;6.53;;;2.58;;
15256;SDS011;7731;50.720;6.912;2023-07-24T11:48:22;3.13;;;2.60;;
15256;SDS011;7731;50.720;6.912;2023-07-24T11:50:56;2.63;;;2.42;;
15256;SDS011;7731;50.720;6.912;2023-07-24T11:53:27;2.65;;;2.42;;
15256;SDS011;7731;50.720;6.912;2023-07-24T11:56:12;3.08;;;2.55;;
15256;SDS011;7731;50.720;6.912;2023-07-24T11:58:44;3.10;;;2.63;;
15256;SDS011;7731;50.720;6.912;2023-07-24T12:01:14;3.97;;;2.60;;
15256;SDS011;7731;50.720;6.912;2023-07-24T12:03:45;4.45;;;2.40;;
15256;SDS011;7731;50.720;6.912;2023-07-24T12:06:16;3.42;;;2.70;;
15256;SDS011;7731;50.720;6.912;2023-07-24T12:08:50;3.65;;;2.67;;
15256;SDS011;7731;50.720;6.912;2023-07-24T12:11:24;2.55;;;2.35;;
15256;SDS011;7731;50.720;6.912;2023-07-24T12:13:55;2.40;;;2.10;;
15256;SDS011;7731;50.720;6.912;2023-07-24T12:16:25;1.70;;;1.50;;
15256;SDS011;7731;50.720;6.912;2023-07-24T12:19:03;1.55;;;1.38;;
15256;SDS011;7731;50.720;6.912;2023-07-24T12:21:33;5.65;;;2.90;;
15256;SDS011;7731;50.720;6.912;2023-07-24T12:24:04;6.18;;;2.78;;
15256;SDS011;7731;50.720;6.912;2023-07-24T12:26:37;5.13;;;1.88;;
15256;SDS011;7731;50.720;6.912;2023-07-24T12:29:10;4.28;;;1.77;;
15256;SDS011;7731;50.720;6.912;2023-07-24T12:31:40;3.05;;;1.90;;
15256;SDS011;7731;50.720;6.912;2023-07-24T12:34:10;2.40;;;1.45;;
15256;SDS011;7731;50.720;6.912;2023-07-24T12:36:40;2.95;;;1.70;;
15256;SDS011;7731;50.720;6.912;2023-07-24T12:39:11;2.45;;;1.50;;
15256;SDS011;7731;50.720;6.912;2023-07-24T12:41:44;1.50;;;1.40;;
15256;SDS011;7731;50.720;6.912;2023-07-24T12:44:14;1.17;;;1.00;;
15256;SDS011;7731;50.720;6.912;2023-07-24T12:46:47;1.65;;;1.30;;
15256;SDS011;7731;50.720;6.912;2023-07-24T12:49:17;1.35;;;1.25;;
15256;SDS011;7731;50.720;6.912;2023-07-24T12:51:47;1.80;;;1.30;;
15256;SDS011;7731;50.720;6.912;2023-07-24T12:54:18;1.80;;;1.30;;
15256;SDS011;7731;50.720;6.912;2023-07-24T12:57:11;1.10;;;1.00;;
15256;SDS011;7731;50.720;6.912;2023-07-24T12:59:42;1.63;;;1.25;;
15256;SDS011;7731;50.720;6.912;2023-07-24T13:02:14;4.38;;;1.20;;
15256;SDS011;7731;50.720;6.912;2023-07-24T13:04:45;3.13;;;1.60;;
15256;SDS011;7731;50.720;6.912;2023-07-24T13:07:15;2.65;;;1.55;;
15256;SDS011;7731;50.720;6.912;2023-07-24T13:09:45;3.00;;;1.00;;
15256;SDS011;7731;50.720;6.912;2023-07-24T13:12:18;1.65;;;1.08;;
15256;SDS011;7731;50.720;6.912;2023-07-24T13:14:54;1.52;;;0.98;;
15256;SDS011;7731;50.720;6.912;2023-07-24T13:17:24;3.97;;;1.20;;
15256;SDS011;7731;50.720;6.912;2023-07-24T13:19:56;2.00;;;1.13;;
15256;SDS011;7731;50.720;6.912;2023-07-24T13:22:26;3.60;;;1.75;;
15256;SDS011;7731;50.720;6.912;2023-07-24T13:24:56;2.03;;;1.20;;
15256;SDS011;7731;50.720;6.912;2023-07-24T13:27:32;2.00;;;1.30;;
15256;SDS011;7731;50.720;6.912;2023-07-24T13:30:05;1.65;;;1.20;;
15256;SDS011;7731;50.720;6.912;2023-07-24T13:32:37;2.10;;;1.10;;
15256;SDS011;7731;50.720;6.912;2023-07-24T13:35:08;1.65;;;1.17;;
15256;SDS011;7731;50.720;6.912;2023-07-24T13:37:41;4.38;;;1.33;;
15256;SDS011;7731;50.720;6.912;2023-07-24T13:40:26;1.73;;;1.40;;
15256;SDS011;7731;50.720;6.912;2023-07-24T13:43:02;2.20;;;1.40;;
15256;SDS011;7731;50.720;6.912;2023-07-24T13:45:35;5.80;;;2.10;;
15256;SDS011;7731;50.720;6.912;2023-07-24T13:48:05;2.53;;;1.90;;
15256;SDS011;7731;50.720;6.912;2023-07-24T13:50:36;4.43;;;1.80;;
15256;SDS011;7731;50.720;6.912;2023-07-24T13:53:08;2.28;;;1.63;;
15256;SDS011;7731;50.720;6.912;2023-07-24T13:55:38;1.92;;;1.60;;
15256;SDS011;7731;50.720;6.912;2023-07-24T13:58:19;1.95;;;1.70;;
15256;SDS011;7731;50.720;6.912;2023-07-24T14:00:49;3.92;;;1.80;;
15256;SDS011;7731;50.720;6.912;2023-07-24T14:03:19;4.70;;;2.10;;
15256;SDS011;7731;50.720;6.912;2023-07-24T14:05:57;7.70;;;2.28;;
15256;SDS011;7731;50.720;6.912;2023-07-24T14:08:27;5.00;;;2.40;;
15256;SDS011;7731;50.720;6.912;2023-07-24T14:10:57;3.38;;;2.30;;
15256;SDS011;7731;50.720;6.912;2023-07-24T14:13:37;3.65;;;2.10;;
15256;SDS011;7731;50.720;6.912;2023-07-24T14:16:08;3.05;;;2.13;;
15256;SDS011;7731;50.720;6.912;2023-07-24T14:18:38;2.22;;;2.00;;
15256;SDS011;7731;50.720;6.912;2023-07-24T14:21:08;2.55;;;2.22;;
15256;SDS011;7731;50.720;6.912;2023-07-24T14:23:39;1.83;;;1.73;;
15256;SDS011;7731;50.720;6.912;2023-07-24T14:26:09;2.17;;;1.80;;
15256;SDS011;7731;50.720;6.912;2023-07-24T14:28:45;3.00;;;1.73;;
15256;SDS011;7731;50.720;6.912;2023-07-24T14:31:15;1.90;;;1.60;;
15256;SDS011;7731;50.720;6.912;2023-07-24T14:33:45;1.50;;;1.40;;
15256;SDS011;7731;50.720;6.912;2023-07-24T14:36:16;1.77;;;1.50;;
15256;SDS011;7731;50.720;6.912;2023-07-24T14:38:46;1.67;;;1.40;;
15256;SDS011;7731;50.720;6.912;2023-07-24T14:41:17;1.67;;;1.48;;
15256;SDS011;7731;50.720;6.912;2023-07-24T14:43:50;1.67;;;1.30;;
15256;SDS011;7731;50.720;6.912;2023-07-24T14:46:20;1.50;;;1.40;;
15256;SDS011;7731;50.720;6.912;2023-07-24T14:48:52;1.50;;;1.40;;
15256;SDS011;7731;50.720;6.912;2023-07-24T14:51:23;2.05;;;1.35;;
15256;SDS011;7731;50.720;6.912;2023-07-24T14:53:57;1.50;;;1.40;;
15256;SDS011;7731;50.720;6.912;2023-07-24T14:56:27;2.25;;;1.80;;
15256;SDS011;7731;50.720;6.912;2023-07-24T14:59:23;1.92;;;1.55;;
15256;SDS011;7731;50.720;6.912;2023-07-24T15:01:53;1.73;;;1.60;;
15256;SDS011;7731;50.720;6.912;2023-07-24T15:04:24;1.23;;;1.10;;
15256;SDS011;7731;50.720;6.912;2023-07-24T15:06:54;1.20;;;1.10;;
15256;SDS011;7731;50.720;6.912;2023-07-24T15:09:33;1.38;;;1.10;;
15256;SDS011;7731;50.720;6.912;2023-07-24T15:12:03;1.10;;;1.00;;
15256;SDS011;7731;50.720;6.912;2023-07-24T15:14:37;1.23;;;1.08;;
15256;SDS011;7731;50.720;6.912;2023-07-24T15:17:16;1.83;;;1.33;;
15256;SDS011;7731;50.720;6.912;2023-07-24T15:19:47;1.20;;;1.10;;
15256;SDS011;7731;50.720;6.912;2023-07-24T15:22:17;2.00;;;1.08;;
15256;SDS011;7731;50.720;6.912;2023-07-24T15:24:49;1.20;;;1.10;;
15256;SDS011;7731;50.720;6.912;2023-07-24T15:27:22;1.23;;;1.08;;
15256;SDS011;7731;50.720;6.912;2023-07-24T15:29:55;1.45;;;1.20;;
15256;SDS011;7731;50.720;6.912;2023-07-24T15:32:26;2.15;;;1.27;;
15256;SDS011;7731;50.720;6.912;2023-07-24T15:34:56;1.27;;;1.17;;
15256;SDS011;7731;50.720;6.912;2023-07-24T15:37:29;1.80;;;1.40;;